Webcam Flughafen St.Gallen-Altenrhein

Live-Bilder und Zeitraffer LSZR / ACH.

 

Live aus Altenrhein
LIVE
LSZR 172350Z AUTO 24007KT 190V320 9999 -RA SCT027 SCT030 06/04 Q1023
Zeitraffer heute
2020-01-18 00:00:00
LSZR 172250Z AUTO VRB04KT 9999 -RA BKN026 07/04 Q1023